Time;durP1;ratioP1;P1;durP2;ratioP2;P2;SDS_P1;SDS_P2;PMS_P1;PMS_P2;Temp;Humidity;BMP_temperature;BMP_pressure;BME280_temperature;BME280_humidity;BME280_pressure;Samples;Min_cycle;Max_cycle;Signal;HPM_P1;HPM_P2
2022/05/24 00:01:03;;;;;;;5.65;1.02;;;;;;;;;;5095380;27;20026;-32
2022/05/24 00:03:28;;;;;;;2.00;0.82;;;;;;;;;;5097100;27;20057;-32
2022/05/24 00:05:54;;;;;;;5.00;1.00;;;;;;;;;;5097985;27;20023;-34
2022/05/24 00:08:19;;;;;;;3.30;1.15;;;;;;;;;;5098059;27;20284;-35
2022/05/24 00:10:44;;;;;;;2.80;0.98;;;;;;;;;;5093985;27;20251;-35
2022/05/24 00:13:11;;;;;;;1.95;0.75;;;;;;;;;;5094663;28;20620;-33
2022/05/24 00:15:37;;;;;;;6.20;1.10;;;;;;;;;;5096697;27;20027;-30
2022/05/24 00:18:05;;;;;;;2.00;0.88;;;;;;;;;;5097537;28;20463;-36
2022/05/24 00:20:37;;;;;;;1.05;0.95;;;;;;;;;;5098554;27;20092;-34
2022/05/24 00:23:02;;;;;;;3.58;1.10;;;;;;;;;;5097334;28;20054;-36
2022/05/24 00:25:28;;;;;;;0.70;0.70;;;;;;;;;;5098584;27;20091;-30
2022/05/24 00:27:53;;;;;;;1.58;0.80;;;;;;;;;;5101932;28;20018;-32
2022/05/24 00:30:18;;;;;;;1.48;0.85;;;;;;;;;;5098286;27;20800;-33
2022/05/24 00:32:44;;;;;;;1.08;0.82;;;;;;;;;;5100231;27;20023;-32
2022/05/24 00:35:09;;;;;;;1.13;0.75;;;;;;;;;;5099619;28;20030;-31
2022/05/24 00:37:35;;;;;;;1.33;1.00;;;;;;;;;;5101342;28;20675;-34
2022/05/24 00:40:01;;;;;;;1.77;0.80;;;;;;;;;;5097729;27;20023;-36
2022/05/24 00:42:26;;;;;;;1.07;0.90;;;;;;;;;;5095813;27;20095;-31
2022/05/24 00:44:54;;;;;;;1.10;0.82;;;;;;;;;;5093987;28;20281;-31
2022/05/24 00:47:23;;;;;;;1.02;0.70;;;;;;;;;;5077646;28;20024;-30
2022/05/24 00:49:50;;;;;;;1.63;0.70;;;;;;;;;;5074768;28;20031;-32
2022/05/24 00:52:16;;;;;;;3.05;0.90;;;;;;;;;;5075112;28;20031;-33
2022/05/24 00:54:42;;;;;;;2.28;0.88;;;;;;;;;;5097414;28;20031;-37
2022/05/24 00:57:17;;;;;;;1.30;0.68;;;;;;;;;;5095189;27;20115;-33
2022/05/24 00:59:45;;;;;;;2.05;0.80;;;;;;;;;;5077788;28;20114;-33
2022/05/24 01:02:11;;;;;;;1.27;0.80;;;;;;;;;;5095787;28;20040;-32
2022/05/24 01:04:36;;;;;;;1.05;0.65;;;;;;;;;;5092167;28;20024;-34
2022/05/24 01:07:01;;;;;;;2.78;0.90;;;;;;;;;;5099990;27;20027;-32
2022/05/24 01:09:46;;;;;;;1.15;0.60;;;;;;;;;;5093513;27;20059;-33
2022/05/24 01:12:15;;;;;;;0.75;0.70;;;;;;;;;;5090304;28;20020;-33
2022/05/24 01:14:41;;;;;;;2.92;0.68;;;;;;;;;;5093292;28;20028;-33
2022/05/24 01:17:06;;;;;;;1.30;0.93;;;;;;;;;;5091362;27;20513;-35
2022/05/24 01:19:33;;;;;;;1.02;0.68;;;;;;;;;;5100543;27;20338;-34
2022/05/24 01:22:00;;;;;;;1.05;0.60;;;;;;;;;;5078356;28;20732;-34
2022/05/24 01:24:30;;;;;;;2.38;0.70;;;;;;;;;;5098802;28;20076;-32
2022/05/24 01:26:55;;;;;;;1.30;0.68;;;;;;;;;;5096596;27;20026;-35
2022/05/24 01:29:21;;;;;;;2.75;0.80;;;;;;;;;;5094914;27;20020;-34
2022/05/24 01:37:15;;;;;;;1.70;0.98;;;;;;;;;;5100007;27;20062;-38
2022/05/24 01:39:41;;;;;;;1.10;0.60;;;;;;;;;;5106393;27;20122;-33
2022/05/24 01:42:07;;;;;;;0.95;0.60;;;;;;;;;;5084396;28;20038;-34
2022/05/24 01:44:47;;;;;;;0.75;0.50;;;;;;;;;;5079703;28;20048;-33
2022/05/24 01:47:12;;;;;;;1.05;0.55;;;;;;;;;;5100888;27;20023;-32
2022/05/24 01:49:39;;;;;;;0.73;0.40;;;;;;;;;;5102621;28;20478;-34
2022/05/24 01:52:15;;;;;;;1.95;0.80;;;;;;;;;;5088264;28;20031;-33
2022/05/24 01:54:45;;;;;;;0.68;0.60;;;;;;;;;;5105927;27;20031;-34
2022/05/24 01:57:12;;;;;;;0.60;0.50;;;;;;;;;;5107841;28;20658;-35
2022/05/24 01:59:37;;;;;;;1.95;0.70;;;;;;;;;;5089585;28;20096;-34
2022/05/24 02:02:02;;;;;;;1.13;0.65;;;;;;;;;;5090716;28;20031;-34
2022/05/24 02:04:28;;;;;;;0.73;0.73;;;;;;;;;;5108709;27;20398;-33
2022/05/24 02:06:57;;;;;;;2.58;0.70;;;;;;;;;;5089851;28;20028;-32
2022/05/24 02:09:22;;;;;;;2.15;0.73;;;;;;;;;;5102736;28;20024;-34
2022/05/24 02:11:47;;;;;;;1.58;0.75;;;;;;;;;;5094275;27;20131;-33
2022/05/24 02:14:20;;;;;;;0.47;0.38;;;;;;;;;;5097325;28;20348;-34
2022/05/24 02:17:06;;;;;;;0.55;0.52;;;;;;;;;;5095906;27;20072;-34
2022/05/24 02:19:32;;;;;;;1.15;0.50;;;;;;;;;;5098399;27;20038;-33
2022/05/24 02:21:58;;;;;;;1.48;0.80;;;;;;;;;;5098324;27;20476;-38
2022/05/24 02:24:24;;;;;;;1.33;0.50;;;;;;;;;;5077592;28;20551;-33
2022/05/24 02:26:49;;;;;;;0.70;0.38;;;;;;;;;;5098402;27;20023;-35
2022/05/24 02:29:15;;;;;;;0.50;0.50;;;;;;;;;;5099348;27;20027;-33
2022/05/24 02:31:40;;;;;;;0.60;0.40;;;;;;;;;;5101567;28;20293;-32
2022/05/24 02:34:05;;;;;;;1.30;0.65;;;;;;;;;;5103767;27;20039;-35
2022/05/24 02:36:30;;;;;;;0.50;0.50;;;;;;;;;;5101812;28;20137;-34
2022/05/24 02:38:56;;;;;;;0.98;0.45;;;;;;;;;;5095011;27;20276;-34
2022/05/24 02:41:31;;;;;;;0.77;0.57;;;;;;;;;;5096127;27;20072;-34
2022/05/24 02:44:07;;;;;;;1.95;0.50;;;;;;;;;;5096313;28;20272;-33
2022/05/24 02:46:33;;;;;;;0.47;0.40;;;;;;;;;;5095369;27;20152;-34
2022/05/24 02:48:58;;;;;;;1.63;0.50;;;;;;;;;;5080914;27;20595;-32
2022/05/24 02:51:23;;;;;;;0.57;0.40;;;;;;;;;;5096051;28;20035;-34
2022/05/24 02:53:48;;;;;;;0.75;0.60;;;;;;;;;;5097961;28;20028;-37
2022/05/24 02:56:14;;;;;;;0.53;0.40;;;;;;;;;;5098498;27;20439;-34
2022/05/24 02:58:39;;;;;;;0.50;0.40;;;;;;;;;;5101404;27;20283;-34
2022/05/24 03:01:10;;;;;;;0.60;0.50;;;;;;;;;;5096843;27;20621;-35
2022/05/24 03:03:35;;;;;;;0.52;0.40;;;;;;;;;;5096831;28;20027;-33
2022/05/24 03:06:00;;;;;;;0.90;0.50;;;;;;;;;;5094202;27;20031;-32
2022/05/24 03:11:10;;;;;;;1.02;0.40;;;;;;;;;;5093426;27;20035;-32
2022/05/24 03:16:20;;;;;;;0.52;0.40;;;;;;;;;;5093745;27;20033;-33
2022/05/24 03:18:45;;;;;;;0.43;0.40;;;;;;;;;;5098145;28;20064;-31
2022/05/24 03:21:10;;;;;;;0.68;0.40;;;;;;;;;;5093832;27;20775;-34
2022/05/24 03:23:35;;;;;;;1.60;0.70;;;;;;;;;;5099356;28;20027;-32
2022/05/24 03:26:01;;;;;;;0.98;0.40;;;;;;;;;;5096188;27;20026;-32
2022/05/24 03:28:26;;;;;;;0.63;0.50;;;;;;;;;;5090815;27;20144;-34
2022/05/24 03:30:51;;;;;;;1.23;0.50;;;;;;;;;;5099014;28;20023;-35
2022/05/24 03:33:17;;;;;;;0.50;0.30;;;;;;;;;;5099349;28;20868;-31
2022/05/24 03:35:42;;;;;;;0.40;0.32;;;;;;;;;;5095575;27;21179;-32
2022/05/24 03:38:07;;;;;;;0.77;0.50;;;;;;;;;;5096035;27;20102;-31
2022/05/24 03:40:32;;;;;;;0.77;0.50;;;;;;;;;;5098790;27;20031;-32
2022/05/24 03:42:58;;;;;;;0.38;0.30;;;;;;;;;;5091589;27;20096;-36
2022/05/24 03:45:23;;;;;;;1.10;0.50;;;;;;;;;;5094462;27;20484;-32
2022/05/24 03:47:48;;;;;;;0.63;0.40;;;;;;;;;;5093524;27;20056;-34
2022/05/24 03:50:14;;;;;;;0.50;0.45;;;;;;;;;;5096212;27;20031;-33
2022/05/24 03:52:39;;;;;;;0.60;0.50;;;;;;;;;;5098310;28;20035;-33
2022/05/24 03:55:04;;;;;;;0.50;0.20;;;;;;;;;;5094434;27;21783;-33
2022/05/24 04:00:14;;;;;;;0.90;0.45;;;;;;;;;;5096025;28;20030;-32
2022/05/24 04:02:39;;;;;;;0.60;0.40;;;;;;;;;;5097765;27;20031;-34
2022/05/24 04:05:05;;;;;;;0.50;0.50;;;;;;;;;;5094997;27;20023;-34
2022/05/24 04:07:30;;;;;;;0.47;0.47;;;;;;;;;;5094061;27;20023;-34
2022/05/24 04:09:56;;;;;;;1.27;0.43;;;;;;;;;;5094372;27;20168;-33
2022/05/24 04:12:21;;;;;;;0.50;0.30;;;;;;;;;;5099761;27;20035;-34
2022/05/24 04:14:46;;;;;;;1.10;0.60;;;;;;;;;;5100815;27;20130;-32
2022/05/24 04:17:11;;;;;;;1.48;0.40;;;;;;;;;;5102892;28;20334;-34
2022/05/24 04:19:37;;;;;;;1.55;0.60;;;;;;;;;;5102840;27;20057;-34
2022/05/24 04:22:02;;;;;;;0.43;0.43;;;;;;;;;;5104547;27;20213;-33
2022/05/24 04:24:27;;;;;;;0.60;0.40;;;;;;;;;;5104962;28;20020;-34
2022/05/24 04:26:52;;;;;;;0.43;0.40;;;;;;;;;;5103499;27;20890;-33
2022/05/24 04:29:18;;;;;;;0.75;0.43;;;;;;;;;;5102583;27;20031;-34
2022/05/24 04:31:43;;;;;;;2.67;0.40;;;;;;;;;;5102105;28;20118;-31
2022/05/24 04:34:08;;;;;;;0.65;0.30;;;;;;;;;;5101706;28;20023;-32
2022/05/24 04:36:33;;;;;;;0.77;0.30;;;;;;;;;;5106135;27;20520;-35
2022/05/24 04:38:58;;;;;;;1.65;0.50;;;;;;;;;;5104136;27;20780;-36
2022/05/24 04:44:08;;;;;;;0.45;0.30;;;;;;;;;;5091052;28;20072;-36
2022/05/24 04:49:17;;;;;;;0.63;0.40;;;;;;;;;;5096220;28;20276;-33
2022/05/24 04:51:42;;;;;;;0.20;0.20;;;;;;;;;;5100084;28;20514;-32
2022/05/24 04:54:08;;;;;;;1.17;0.40;;;;;;;;;;5098721;27;20038;-32
2022/05/24 04:56:33;;;;;;;0.60;0.30;;;;;;;;;;5101365;28;20344;-35
2022/05/24 04:58:58;;;;;;;0.22;0.22;;;;;;;;;;5097866;27;20026;-35
2022/05/24 05:01:23;;;;;;;0.93;0.30;;;;;;;;;;5095624;27;20149;-36
2022/05/24 05:03:48;;;;;;;0.37;0.37;;;;;;;;;;5099266;27;20287;-33
2022/05/24 05:06:14;;;;;;;0.30;0.27;;;;;;;;;;5100130;28;20763;-32
2022/05/24 05:08:39;;;;;;;0.95;0.40;;;;;;;;;;5098150;27;20373;-32
2022/05/24 05:11:04;;;;;;;0.80;0.35;;;;;;;;;;5097508;27;20905;-36
2022/05/24 05:13:29;;;;;;;0.47;0.30;;;;;;;;;;5095613;28;20540;-33
2022/05/24 05:15:55;;;;;;;0.82;0.43;;;;;;;;;;5098474;27;20276;-37
2022/05/24 05:18:22;;;;;;;0.57;0.40;;;;;;;;;;5098261;28;20026;-33
2022/05/24 05:20:47;;;;;;;0.90;0.40;;;;;;;;;;5096996;27;20604;-36
2022/05/24 05:23:13;;;;;;;0.88;0.30;;;;;;;;;;5096673;28;20027;-37
2022/05/24 05:25:39;;;;;;;0.95;0.40;;;;;;;;;;5096719;27;23141;-36
2022/05/24 05:28:04;;;;;;;0.40;0.30;;;;;;;;;;5096888;27;20019;-31
2022/05/24 05:33:14;;;;;;;0.50;0.32;;;;;;;;;;5095068;28;20081;-35
2022/05/24 05:35:39;;;;;;;1.30;0.30;;;;;;;;;;5099432;28;20604;-35
2022/05/24 05:38:04;;;;;;;1.13;0.50;;;;;;;;;;5097362;27;20026;-35
2022/05/24 05:40:29;;;;;;;0.77;0.30;;;;;;;;;;5099394;28;20023;-35
2022/05/24 05:42:55;;;;;;;0.60;0.40;;;;;;;;;;5095429;27;20007;-33
2022/05/24 05:45:20;;;;;;;0.83;0.43;;;;;;;;;;5096795;28;20716;-33
2022/05/24 05:47:45;;;;;;;0.40;0.40;;;;;;;;;;5100529;27;20288;-37
2022/05/24 05:50:10;;;;;;;0.75;0.60;;;;;;;;;;5097432;28;20478;-36
2022/05/24 05:52:35;;;;;;;1.20;0.30;;;;;;;;;;5097433;27;20026;-36
2022/05/24 05:55:01;;;;;;;0.95;0.43;;;;;;;;;;5095351;27;20596;-36
2022/05/24 05:57:26;;;;;;;1.05;0.40;;;;;;;;;;5097251;27;20031;-31
2022/05/24 05:59:52;;;;;;;0.73;0.30;;;;;;;;;;5099321;28;20038;-38
2022/05/24 06:02:17;;;;;;;1.85;0.40;;;;;;;;;;5097915;28;20277;-34
2022/05/24 06:04:42;;;;;;;1.05;0.30;;;;;;;;;;5096479;27;20031;-35
2022/05/24 06:07:08;;;;;;;0.87;0.40;;;;;;;;;;5097538;27;20023;-36
2022/05/24 06:09:33;;;;;;;0.55;0.20;;;;;;;;;;5097923;27;20282;-33
2022/05/24 06:11:59;;;;;;;2.30;0.30;;;;;;;;;;5096140;27;20030;-34
2022/05/24 06:14:24;;;;;;;0.30;0.30;;;;;;;;;;5093976;27;20398;-34
2022/05/24 06:16:49;;;;;;;0.30;0.20;;;;;;;;;;5095493;27;20023;-36
2022/05/24 06:19:14;;;;;;;1.90;0.30;;;;;;;;;;5084558;28;20787;-39
2022/05/24 06:21:40;;;;;;;1.00;0.20;;;;;;;;;;5097883;27;20280;-33
2022/05/24 06:24:05;;;;;;;2.57;0.20;;;;;;;;;;5095023;27;20027;-33
2022/05/24 06:26:30;;;;;;;1.52;0.40;;;;;;;;;;5100124;28;20368;-34
2022/05/24 06:28:57;;;;;;;0.20;0.20;;;;;;;;;;5104547;27;20023;-35
2022/05/24 06:31:22;;;;;;;0.32;0.30;;;;;;;;;;5099699;27;22930;-35
2022/05/24 06:33:48;;;;;;;1.13;0.47;;;;;;;;;;5079424;27;20023;-35
2022/05/24 06:36:14;;;;;;;3.47;0.70;;;;;;;;;;5104334;27;20020;-33
2022/05/24 06:38:39;;;;;;;2.20;1.15;;;;;;;;;;5102192;27;20027;-35
2022/05/24 06:41:04;;;;;;;24.65;2.20;;;;;;;;;;5091063;27;20012;-35
2022/05/24 06:43:30;;;;;;;6.57;1.42;;;;;;;;;;5093812;27;20033;-32
2022/05/24 06:45:55;;;;;;;14.48;2.03;;;;;;;;;;5094552;27;20015;-37
2022/05/24 06:48:20;;;;;;;7.27;2.03;;;;;;;;;;5099008;28;20027;-33
2022/05/24 06:50:45;;;;;;;5.95;1.92;;;;;;;;;;5088957;28;20284;-33
2022/05/24 06:53:11;;;;;;;8.63;2.10;;;;;;;;;;5094729;27;20028;-33
2022/05/24 06:55:37;;;;;;;6.72;1.50;;;;;;;;;;5099834;27;20274;-34
2022/05/24 06:58:02;;;;;;;10.45;1.77;;;;;;;;;;5092269;28;20030;-32
2022/05/24 07:03:12;;;;;;;6.72;1.70;;;;;;;;;;5093012;27;20422;-34
2022/05/24 07:05:38;;;;;;;6.60;1.65;;;;;;;;;;5096662;27;20084;-38
2022/05/24 07:08:05;;;;;;;10.40;1.92;;;;;;;;;;5098886;28;20019;-36
2022/05/24 07:10:30;;;;;;;4.80;2.05;;;;;;;;;;5098232;28;20034;-33
2022/05/24 07:13:03;;;;;;;5.32;1.67;;;;;;;;;;5097972;27;20015;-36
2022/05/24 07:15:28;;;;;;;5.78;1.90;;;;;;;;;;5092636;27;20035;-35
2022/05/24 07:17:53;;;;;;;7.82;1.90;;;;;;;;;;5095993;27;20038;-37
2022/05/24 07:20:19;;;;;;;8.93;1.70;;;;;;;;;;5097352;28;20860;-35
2022/05/24 07:22:44;;;;;;;4.25;1.60;;;;;;;;;;5099256;28;20027;-34
2022/05/24 07:25:10;;;;;;;3.43;1.60;;;;;;;;;;5097207;28;20540;-32
2022/05/24 07:27:35;;;;;;;5.07;1.92;;;;;;;;;;5096157;27;20313;-34
2022/05/24 07:30:00;;;;;;;7.43;1.90;;;;;;;;;;5095277;27;20019;-37
2022/05/24 07:32:25;;;;;;;3.78;1.73;;;;;;;;;;5095732;28;20059;-34
2022/05/24 07:34:50;;;;;;;5.32;1.58;;;;;;;;;;5092232;27;20598;-35
2022/05/24 07:37:16;;;;;;;4.38;1.30;;;;;;;;;;5088854;27;20827;-36
2022/05/24 07:39:42;;;;;;;5.15;1.65;;;;;;;;;;5093591;27;20603;-35
2022/05/24 07:47:35;;;;;;;2.80;1.17;;;;;;;;;;5097277;28;20068;-33
2022/05/24 07:50:00;;;;;;;4.82;1.90;;;;;;;;;;5093873;27;20033;-33
2022/05/24 07:52:25;;;;;;;4.18;1.20;;;;;;;;;;5092287;27;20025;-36
2022/05/24 07:54:51;;;;;;;5.15;1.70;;;;;;;;;;5100649;27;20039;-31
2022/05/24 07:57:16;;;;;;;5.00;1.65;;;;;;;;;;5097648;27;20092;-36
2022/05/24 07:59:43;;;;;;;3.63;1.50;;;;;;;;;;5102192;28;20087;-33
2022/05/24 08:02:09;;;;;;;7.25;1.30;;;;;;;;;;5099798;27;20126;-34
2022/05/24 08:04:34;;;;;;;3.40;1.50;;;;;;;;;;5101703;27;20557;-33
2022/05/24 08:07:00;;;;;;;3.30;1.35;;;;;;;;;;5101134;27;20600;-35
2022/05/24 08:09:28;;;;;;;3.03;1.30;;;;;;;;;;5097616;28;20517;-34
2022/05/24 08:11:53;;;;;;;3.65;1.73;;;;;;;;;;5078568;28;20027;-35
2022/05/24 08:14:18;;;;;;;2.80;1.30;;;;;;;;;;5097621;27;20607;-34
2022/05/24 08:16:44;;;;;;;5.32;1.10;;;;;;;;;;5098049;27;20026;-33
2022/05/24 08:19:09;;;;;;;1.38;0.55;;;;;;;;;;5096014;27;20047;-35
2022/05/24 08:21:35;;;;;;;1.77;0.65;;;;;;;;;;5101688;28;20046;-35
2022/05/24 08:24:00;;;;;;;2.35;0.77;;;;;;;;;;5100098;27;20027;-33
2022/05/24 08:26:25;;;;;;;2.55;0.63;;;;;;;;;;5092740;27;20059;-32
2022/05/24 08:28:51;;;;;;;2.35;0.70;;;;;;;;;;5097142;27;20632;-34
2022/05/24 08:31:16;;;;;;;5.07;0.32;;;;;;;;;;5083847;27;20937;-33
2022/05/24 08:33:42;;;;;;;1.92;0.40;;;;;;;;;;5093393;27;20568;-33
2022/05/24 08:36:07;;;;;;;2.75;0.60;;;;;;;;;;5079254;28;20575;-33
2022/05/24 08:38:34;;;;;;;1.60;0.65;;;;;;;;;;5079115;28;20008;-31
2022/05/24 08:41:00;;;;;;;0.82;0.40;;;;;;;;;;5078221;28;20108;-34
2022/05/24 08:43:25;;;;;;;1.45;0.40;;;;;;;;;;5072051;28;20024;-34
2022/05/24 08:48:44;;;;;;;3.75;0.40;;;;;;;;;;5066558;28;20811;-33
2022/05/24 08:51:17;;;;;;;2.55;0.35;;;;;;;;;;5050644;28;20443;-34
2022/05/24 08:53:45;;;;;;;2.28;0.50;;;;;;;;;;5050876;28;20036;-33
2022/05/24 08:56:11;;;;;;;1.33;0.50;;;;;;;;;;5071931;28;20024;-47
2022/05/24 08:58:38;;;;;;;4.28;0.75;;;;;;;;;;5068333;28;20023;-33
2022/05/24 09:01:20;;;;;;;1.35;0.50;;;;;;;;;;5051076;28;20035;-38
2022/05/24 09:03:45;;;;;;;1.35;0.40;;;;;;;;;;5060508;28;20044;-33
2022/05/24 09:06:13;;;;;;;0.88;0.40;;;;;;;;;;5079621;28;20116;-34
2022/05/24 09:08:54;;;;;;;0.93;0.50;;;;;;;;;;5064778;28;20041;-32
2022/05/24 09:11:19;;;;;;;0.60;0.30;;;;;;;;;;5059627;28;20059;-35
2022/05/24 09:14:03;;;;;;;2.30;0.50;;;;;;;;;;5074730;28;20118;-33
2022/05/24 09:16:47;;;;;;;4.18;0.60;;;;;;;;;;5076787;28;20277;-32
2022/05/24 09:19:12;;;;;;;1.55;0.40;;;;;;;;;;5058596;28;20022;-33
2022/05/24 09:21:42;;;;;;;10.10;0.70;;;;;;;;;;5072970;28;20051;-34
2022/05/24 09:24:07;;;;;;;4.97;0.45;;;;;;;;;;5081539;28;20330;-33
2022/05/24 09:26:34;;;;;;;4.33;0.40;;;;;;;;;;5082213;28;20841;-33
2022/05/24 09:29:10;;;;;;;1.33;0.43;;;;;;;;;;5072994;28;20286;-32
2022/05/24 09:31:39;;;;;;;3.08;0.70;;;;;;;;;;5082475;28;20983;-32
2022/05/24 09:34:07;;;;;;;4.85;1.13;;;;;;;;;;5056702;28;20089;-31
2022/05/24 09:36:33;;;;;;;6.95;1.40;;;;;;;;;;5080158;28;20031;-32
2022/05/24 09:38:58;;;;;;;10.40;2.53;;;;;;;;;;5080382;28;20254;-39
2022/05/24 09:41:23;;;;;;;9.98;2.90;;;;;;;;;;5080851;28;20028;-32
2022/05/24 09:44:00;;;;;;;6.63;3.13;;;;;;;;;;5079366;28;20027;-34
2022/05/24 09:46:26;;;;;;;8.93;2.78;;;;;;;;;;5079880;28;20277;-33
2022/05/24 09:49:03;;;;;;;11.05;3.15;;;;;;;;;;5081371;28;20024;-38
2022/05/24 09:51:32;;;;;;;10.40;2.50;;;;;;;;;;5081759;28;20901;-33
2022/05/24 09:53:57;;;;;;;7.43;2.80;;;;;;;;;;5080375;28;20042;-32
2022/05/24 09:56:24;;;;;;;7.57;2.53;;;;;;;;;;5080092;28;20645;-33
2022/05/24 09:58:51;;;;;;;8.38;2.35;;;;;;;;;;5082372;28;20032;-34
2022/05/24 10:01:30;;;;;;;6.57;2.80;;;;;;;;;;5084903;28;20020;-32
2022/05/24 10:03:56;;;;;;;7.95;2.58;;;;;;;;;;5086662;28;20031;-33
2022/05/24 10:06:30;;;;;;;10.20;2.53;;;;;;;;;;5070138;28;20028;-32
2022/05/24 10:09:09;;;;;;;7.20;2.60;;;;;;;;;;5089471;28;20477;-33
2022/05/24 10:11:43;;;;;;;6.97;3.10;;;;;;;;;;5070152;28;20297;-32
2022/05/24 10:14:08;;;;;;;9.07;2.80;;;;;;;;;;5069448;28;20024;-32
2022/05/24 10:16:35;;;;;;;7.40;2.90;;;;;;;;;;5086983;28;20096;-31
2022/05/24 10:19:06;;;;;;;9.13;2.90;;;;;;;;;;5085991;28;20282;-37
2022/05/24 10:21:41;;;;;;;8.93;2.92;;;;;;;;;;5071763;28;20012;-32
2022/05/24 10:24:09;;;;;;;9.68;2.88;;;;;;;;;;5069586;28;20103;-32
2022/05/24 10:26:55;;;;;;;7.00;2.60;;;;;;;;;;5082585;28;20035;-34
2022/05/24 10:29:40;;;;;;;8.25;2.45;;;;;;;;;;5086935;28;20494;-35
2022/05/24 10:32:07;;;;;;;8.52;2.78;;;;;;;;;;5087516;28;20040;-35
2022/05/24 10:40:35;;;;;;;6.43;2.80;;;;;;;;;;5084820;28;20063;-33
2022/05/24 10:43:06;;;;;;;9.00;3.10;;;;;;;;;;5068988;28;20020;-34
2022/05/24 10:45:50;;;;;;;6.60;2.60;;;;;;;;;;5086186;28;20011;-37
2022/05/24 10:48:55;;;;;;;7.35;2.58;;;;;;;;;;5086075;28;20024;-34
2022/05/24 10:51:32;;;;;;;6.68;2.50;;;;;;;;;;5014420;28;20038;-32
2022/05/24 10:54:05;;;;;;;3.92;2.15;;;;;;;;;;5011504;28;20036;-33
2022/05/24 10:56:43;;;;;;;5.65;2.20;;;;;;;;;;5039371;28;20119;-31
2022/05/24 10:59:15;;;;;;;6.20;2.20;;;;;;;;;;5068995;28;20031;-33
2022/05/24 11:01:42;;;;;;;5.57;2.50;;;;;;;;;;5068153;28;20101;-32
2022/05/24 11:04:08;;;;;;;5.88;2.40;;;;;;;;;;5086838;28;20020;-33
2022/05/24 11:06:34;;;;;;;6.88;2.55;;;;;;;;;;5065543;28;20034;-34
2022/05/24 11:09:10;;;;;;;4.32;2.17;;;;;;;;;;5086138;28;20015;-33
2022/05/24 11:11:35;;;;;;;5.88;2.40;;;;;;;;;;5070392;28;20020;-34
2022/05/24 11:14:06;;;;;;;4.60;2.13;;;;;;;;;;5086265;28;21046;-36
2022/05/24 11:16:45;;;;;;;6.60;2.22;;;;;;;;;;5070823;28;20053;-32
2022/05/24 11:19:14;;;;;;;3.97;1.83;;;;;;;;;;5086860;28;20391;-33
2022/05/24 11:21:41;;;;;;;5.57;2.17;;;;;;;;;;5067873;28;20020;-32
2022/05/24 11:24:08;;;;;;;4.15;2.00;;;;;;;;;;5085628;28;20028;-32
2022/05/24 11:26:35;;;;;;;5.10;2.30;;;;;;;;;;5072101;28;20028;-33
2022/05/24 11:29:12;;;;;;;6.88;2.47;;;;;;;;;;5081826;28;20020;-32
2022/05/24 11:31:46;;;;;;;4.55;2.00;;;;;;;;;;5070630;28;20032;-32
2022/05/24 11:34:11;;;;;;;5.05;2.13;;;;;;;;;;5077409;28;20820;-35
2022/05/24 11:36:37;;;;;;;5.13;1.90;;;;;;;;;;5076264;28;20085;-34
2022/05/24 11:39:13;;;;;;;4.47;2.10;;;;;;;;;;5072243;28;20272;-36
2022/05/24 11:41:39;;;;;;;4.95;2.13;;;;;;;;;;5072796;28;20138;-37
2022/05/24 11:44:05;;;;;;;5.13;2.13;;;;;;;;;;5059726;28;22469;-32
2022/05/24 11:46:33;;;;;;;5.20;1.92;;;;;;;;;;5078088;28;20712;-32
2022/05/24 11:49:04;;;;;;;4.38;1.70;;;;;;;;;;5086060;28;20087;-32
2022/05/24 11:51:39;;;;;;;5.75;2.13;;;;;;;;;;5080606;28;20027;-34
2022/05/24 11:54:27;;;;;;;4.40;1.98;;;;;;;;;;5086304;28;20036;-32
2022/05/24 11:56:53;;;;;;;2.83;1.45;;;;;;;;;;5046920;28;20068;-33
2022/05/24 11:59:38;;;;;;;5.78;2.08;;;;;;;;;;5085109;28;20499;-32
2022/05/24 12:02:25;;;;;;;3.08;1.30;;;;;;;;;;5085975;28;20116;-36
2022/05/24 12:07:56;;;;;;;2.67;1.42;;;;;;;;;;5085595;28;20708;-34
2022/05/24 12:10:21;;;;;;;3.22;1.70;;;;;;;;;;5081964;28;20066;-32
2022/05/24 12:12:55;;;;;;;3.57;1.70;;;;;;;;;;5078118;28;20683;-32
2022/05/24 12:15:30;;;;;;;2.83;1.40;;;;;;;;;;5063219;28;20323;-32
2022/05/24 12:17:58;;;;;;;2.42;1.05;;;;;;;;;;5083265;28;20030;-31
2022/05/24 12:20:32;;;;;;;4.70;0.90;;;;;;;;;;5085165;28;20635;-33
2022/05/24 12:23:06;;;;;;;4.30;1.10;;;;;;;;;;5079298;28;20030;-33
2022/05/24 12:25:49;;;;;;;3.17;1.15;;;;;;;;;;5079395;28;20051;-34
2022/05/24 12:28:15;;;;;;;2.30;0.90;;;;;;;;;;5081629;28;20019;-33
2022/05/24 12:30:41;;;;;;;4.57;1.00;;;;;;;;;;5084260;28;20027;-36
2022/05/24 12:33:25;;;;;;;6.75;0.85;;;;;;;;;;5068114;28;20277;-33
2022/05/24 12:36:05;;;;;;;3.53;0.90;;;;;;;;;;5082905;28;20095;-33
2022/05/24 12:38:30;;;;;;;4.13;0.80;;;;;;;;;;5076119;28;20020;-35
2022/05/24 12:41:14;;;;;;;2.70;0.80;;;;;;;;;;5076094;28;20050;-39
2022/05/24 12:43:49;;;;;;;5.93;0.98;;;;;;;;;;5082843;28;20039;-33
2022/05/24 12:46:14;;;;;;;5.80;1.00;;;;;;;;;;5058206;28;20031;-35
2022/05/24 12:48:40;;;;;;;6.80;1.13;;;;;;;;;;5048335;28;20027;-33
2022/05/24 12:51:07;;;;;;;1.55;0.70;;;;;;;;;;5030871;28;20043;-32
2022/05/24 12:53:32;;;;;;;3.38;0.57;;;;;;;;;;5040724;28;20023;-34
2022/05/24 12:55:59;;;;;;;3.35;0.47;;;;;;;;;;5049387;28;20497;-36
2022/05/24 12:58:33;;;;;;;7.05;0.70;;;;;;;;;;5049252;28;20034;-34
2022/05/24 13:01:07;;;;;;;4.55;0.80;;;;;;;;;;5045678;28;20653;-37
2022/05/24 13:03:32;;;;;;;2.90;0.82;;;;;;;;;;5047445;28;20032;-34
2022/05/24 13:05:57;;;;;;;4.03;0.80;;;;;;;;;;5032634;28;20644;-37
2022/05/24 13:08:23;;;;;;;5.38;0.85;;;;;;;;;;5048868;28;20171;-33
2022/05/24 13:10:48;;;;;;;2.67;1.00;;;;;;;;;;5045032;28;20096;-35
2022/05/24 13:13:22;;;;;;;6.32;2.70;;;;;;;;;;5041209;28;20096;-38
2022/05/24 13:15:50;;;;;;;7.78;3.58;;;;;;;;;;5045581;28;20031;-33
2022/05/24 13:18:17;;;;;;;23.35;10.80;;;;;;;;;;5050339;28;21221;-34
2022/05/24 13:20:42;;;;;;;65.18;32.55;;;;;;;;;;5048394;28;20902;-34
2022/05/24 13:23:14;;;;;;;85.28;39.08;;;;;;;;;;5035537;28;20038;-36
2022/05/24 13:25:45;;;;;;;120.72;49.92;;;;;;;;;;5057380;28;20261;-36
2022/05/24 13:28:10;;;;;;;102.13;46.42;;;;;;;;;;5061132;28;20034;-36
2022/05/24 13:33:35;;;;;;;67.85;30.45;;;;;;;;;;5057153;28;20039;-38
2022/05/24 13:36:18;;;;;;;64.50;31.83;;;;;;;;;;5054309;28;20695;-33
2022/05/24 13:38:44;;;;;;;74.63;37.90;;;;;;;;;;5051251;28;20043;-36
2022/05/24 13:41:09;;;;;;;86.55;38.92;;;;;;;;;;5050130;28;20106;-34
2022/05/24 13:43:35;;;;;;;65.50;30.60;;;;;;;;;;5045906;28;20149;-32
2022/05/24 13:46:14;;;;;;;53.95;28.27;;;;;;;;;;5053155;28;20464;-34
2022/05/24 13:48:42;;;;;;;45.33;24.10;;;;;;;;;;5079791;28;20027;-34
2022/05/24 13:51:07;;;;;;;46.13;21.92;;;;;;;;;;5082002;28;20664;-34
2022/05/24 13:53:37;;;;;;;33.65;17.33;;;;;;;;;;5078453;28;20058;-34
2022/05/24 13:56:21;;;;;;;28.77;15.32;;;;;;;;;;5078476;28;20027;-32
2022/05/24 13:58:48;;;;;;;31.00;15.90;;;;;;;;;;5077699;28;20020;-35
2022/05/24 14:01:29;;;;;;;33.72;15.80;;;;;;;;;;5059103;28;20027;-33
2022/05/24 14:03:58;;;;;;;31.08;15.63;;;;;;;;;;5078786;28;20104;-33
2022/05/24 14:06:25;;;;;;;34.03;17.08;;;;;;;;;;5077849;28;20085;-33
2022/05/24 14:08:50;;;;;;;34.47;17.85;;;;;;;;;;5076350;28;20039;-33
2022/05/24 14:11:20;;;;;;;32.03;14.63;;;;;;;;;;5076512;28;20112;-33
2022/05/24 14:13:45;;;;;;;29.90;14.10;;;;;;;;;;5072817;28;20299;-36
2022/05/24 14:16:11;;;;;;;31.08;13.45;;;;;;;;;;5084205;28;20043;-32
2022/05/24 14:18:36;;;;;;;22.88;11.05;;;;;;;;;;5083920;28;20776;-37
2022/05/24 14:21:02;;;;;;;24.10;10.15;;;;;;;;;;5084280;28;20040;-40
2022/05/24 14:23:27;;;;;;;19.15;9.10;;;;;;;;;;5086243;28;20016;-34
2022/05/24 14:25:52;;;;;;;14.73;8.17;;;;;;;;;;5080868;28;20039;-31
2022/05/24 14:28:17;;;;;;;26.88;8.80;;;;;;;;;;5086080;28;20282;-36
2022/05/24 14:30:44;;;;;;;17.60;7.90;;;;;;;;;;5081876;28;20036;-36
2022/05/24 14:33:11;;;;;;;16.42;7.55;;;;;;;;;;5082739;28;21055;-33
2022/05/24 14:35:36;;;;;;;15.32;6.97;;;;;;;;;;5084042;28;20024;-35
2022/05/24 14:38:02;;;;;;;13.52;6.05;;;;;;;;;;5084695;28;20054;-33
2022/05/24 14:40:27;;;;;;;12.05;4.32;;;;;;;;;;5082461;28;20500;-34
2022/05/24 14:42:52;;;;;;;6.82;3.78;;;;;;;;;;5083808;28;20084;-33
2022/05/24 14:45:18;;;;;;;9.27;3.78;;;;;;;;;;5083586;28;20757;-32
2022/05/24 14:47:43;;;;;;;6.20;2.53;;;;;;;;;;5081233;28;21830;-34
2022/05/24 14:50:09;;;;;;;11.45;2.70;;;;;;;;;;5074231;28;20027;-33
2022/05/24 14:52:34;;;;;;;6.47;3.00;;;;;;;;;;5077056;28;20069;-34
2022/05/24 14:54:59;;;;;;;4.90;1.30;;;;;;;;;;5074706;28;20031;-35
2022/05/24 14:57:24;;;;;;;2.85;0.88;;;;;;;;;;5082611;28;20028;-32
2022/05/24 14:59:51;;;;;;;4.78;0.90;;;;;;;;;;5080856;28;20030;-33
2022/05/24 15:02:16;;;;;;;6.03;1.10;;;;;;;;;;5077379;28;20526;-34
2022/05/24 15:04:42;;;;;;;6.45;1.08;;;;;;;;;;5074908;28;20039;-35
2022/05/24 15:15:43;;;;;;;4.13;2.10;;;;;;;;;;5078549;28;20050;-33
2022/05/24 15:18:09;;;;;;;4.00;1.00;;;;;;;;;;5079654;28;20103;-34
2022/05/24 15:20:34;;;;;;;2.85;1.60;;;;;;;;;;5080541;28;20096;-32
2022/05/24 15:23:00;;;;;;;4.35;1.10;;;;;;;;;;5087339;28;20054;-35
2022/05/24 15:25:27;;;;;;;6.97;0.80;;;;;;;;;;5087591;28;20114;-33
2022/05/24 15:27:52;;;;;;;1.48;0.70;;;;;;;;;;5069760;28;20073;-32
2022/05/24 15:30:17;;;;;;;1.92;0.70;;;;;;;;;;5085247;28;20529;-34
2022/05/24 15:32:43;;;;;;;1.23;0.60;;;;;;;;;;5087795;28;20095;-32
2022/05/24 15:35:08;;;;;;;3.75;0.60;;;;;;;;;;5087250;28;20043;-34
2022/05/24 15:37:33;;;;;;;6.22;0.90;;;;;;;;;;5089444;28;20028;-32